Time;durP1;ratioP1;P1;durP2;ratioP2;P2;SDS_P1;SDS_P2;PMS_P1;PMS_P2;Temp;Humidity;BMP_temperature;BMP_pressure;BME280_temperature;BME280_humidity;BME280_pressure;Samples;Min_cycle;Max_cycle;Signal;HPM_P1;HPM_P2
2021/11/19 00:01:16;;;;;;;19.00;12.93;;;;;;;9.72;97.48;99696.47;5071273;28;20033;-61
2021/11/19 00:03:42;;;;;;;17.85;12.60;;;;;;;9.65;98.01;99692.66;5075515;28;20059;-61
2021/11/19 00:06:10;;;;;;;19.60;12.75;;;;;;;9.42;97.71;99645.84;5060958;28;20558;-62
2021/11/19 00:08:36;;;;;;;17.15;12.68;;;;;;;9.66;97.87;99688.31;5054740;28;20059;-62
2021/11/19 00:11:04;;;;;;;17.90;12.88;;;;;;;9.68;97.12;99689.84;5069428;28;20024;-61
2021/11/19 00:13:29;;;;;;;17.48;12.80;;;;;;;9.27;97.09;99646.13;5079268;28;20035;-61
2021/11/19 00:15:58;;;;;;;20.35;13.35;;;;;;;9.29;98.28;99662.41;5078105;28;20032;-61
2021/11/19 00:18:24;;;;;;;19.38;13.65;;;;;;;9.40;98.31;99683.22;5072834;28;20020;-61
2021/11/19 00:20:50;;;;;;;18.58;12.90;;;;;;;9.56;98.30;99682.94;5078388;28;20059;-61
2021/11/19 00:23:17;;;;;;;17.83;13.40;;;;;;;9.59;98.06;99690.53;5058469;28;20670;-61
2021/11/19 00:25:42;;;;;;;20.23;13.73;;;;;;;9.39;97.30;99685.00;5069467;28;20027;-61
2021/11/19 00:28:08;;;;;;;20.60;13.40;;;;;;;9.15;97.75;99645.25;5074177;28;20562;-61
2021/11/19 00:30:36;;;;;;;19.52;13.57;;;;;;;9.31;97.89;99682.16;5075985;28;20086;-61
2021/11/19 00:33:03;;;;;;;20.65;13.18;;;;;;;9.28;98.49;99678.94;5073953;28;20070;-61
2021/11/19 00:35:29;;;;;;;19.70;14.07;;;;;;;9.29;98.22;99691.81;5063281;28;20058;-62
2021/11/19 00:37:56;;;;;;;18.40;13.00;;;;;;;9.39;98.23;99681.59;5063003;28;20741;-61
2021/11/19 00:40:32;;;;;;;18.17;11.77;;;;;;;9.48;97.73;99693.91;5059964;28;20020;-62
2021/11/19 00:42:58;;;;;;;17.63;11.57;;;;;;;9.42;97.00;99683.97;5074441;28;20785;-61
2021/11/19 00:45:24;;;;;;;17.17;12.35;;;;;;;9.41;96.55;99680.53;5079777;28;20111;-61
2021/11/19 00:47:54;;;;;;;20.50;13.32;;;;;;;9.56;96.15;99694.16;5072552;28;20028;-61
2021/11/19 00:50:23;;;;;;;18.65;12.60;;;;;;;9.57;96.05;99685.44;5068431;28;20043;-61
2021/11/19 00:52:48;;;;;;;20.55;13.10;;;;;;;9.63;96.30;99690.19;5062600;28;20036;-61
2021/11/19 00:55:14;;;;;;;17.50;12.73;;;;;;;9.49;95.61;99666.16;5014951;28;20178;-61
2021/11/19 00:57:39;;;;;;;17.92;12.35;;;;;;;9.52;95.68;99671.97;5070769;28;20477;-61
2021/11/19 01:00:12;;;;;;;20.45;13.05;;;;;;;9.62;95.63;99674.72;5069409;28;20704;-62
2021/11/19 01:02:37;;;;;;;17.83;12.13;;;;;;;9.61;96.42;99686.03;5062720;28;20033;-61
2021/11/19 01:05:04;;;;;;;18.50;12.75;;;;;;;9.62;96.58;99685.94;5075008;28;20024;-62
2021/11/19 01:07:30;;;;;;;18.33;12.52;;;;;;;9.53;96.35;99689.22;5074926;28;20117;-61
2021/11/19 01:09:59;;;;;;;19.60;12.75;;;;;;;9.47;97.37;99689.63;5000976;28;20569;-61
2021/11/19 01:12:27;;;;;;;19.35;12.07;;;;;;;9.45;97.68;99685.50;5085955;28;20038;-62
2021/11/19 01:15:01;;;;;;;17.60;12.88;;;;;;;9.09;97.31;99632.72;5052099;28;20036;-62
2021/11/19 01:17:33;;;;;;;19.77;12.77;;;;;;;9.15;98.19;99666.03;5075775;28;20039;-62
2021/11/19 01:20:02;;;;;;;17.33;12.57;;;;;;;9.11;98.22;99669.75;5097151;27;20024;-61
2021/11/19 01:22:32;;;;;;;20.15;12.95;;;;;;;9.02;99.17;99656.50;5072340;28;20054;-61
2021/11/19 01:24:58;;;;;;;;;;;;;;;9.06;98.67;99671.88;5079862;28;20075;-61
2021/11/19 01:27:24;;;;;;;18.23;12.05;;;;;;;8.93;98.96;99657.16;5064883;28;20002;-61
2021/11/19 01:29:50;;;;;;;20.67;12.55;;;;;;;8.62;99.47;99611.81;5111885;27;20509;-62
2021/11/19 01:32:19;;;;;;;19.00;13.00;;;;;;;8.38;99.19;99572.88;5079757;28;20459;-61
2021/11/19 01:34:44;;;;;;;21.55;12.38;;;;;;;8.94;98.62;99651.03;5075078;28;20020;-61
2021/11/19 01:37:11;;;;;;;18.73;12.48;;;;;;;8.70;99.24;99621.66;5106916;27;20034;-61
2021/11/19 01:39:37;;;;;;;18.45;12.63;;;;;;;8.94;98.63;99658.81;5106850;27;20545;-61
2021/11/19 01:42:13;;;;;;;18.30;12.65;;;;;;;8.93;98.50;99659.75;5028011;28;20836;-61
2021/11/19 01:45:01;;;;;;;18.00;12.15;;;;;;;8.83;98.97;99664.78;5078157;28;20044;-61
2021/11/19 01:47:29;;;;;;;18.65;12.05;;;;;;;8.97;98.29;99660.38;5069502;28;20130;-61
2021/11/19 01:49:55;;;;;;;22.05;13.38;;;;;;;8.90;98.40;99654.78;5078987;28;20166;-61
2021/11/19 01:52:47;;;;;;;21.17;13.00;;;;;;;8.71;97.91;99638.88;5064396;28;20119;-61
2021/11/19 01:55:20;;;;;;;18.67;12.80;;;;;;;8.71;97.70;99655.25;5077820;28;20561;-61
2021/11/19 01:57:53;;;;;;;23.05;14.40;;;;;;;8.79;98.23;99657.31;5013738;28;20032;-61
2021/11/19 02:00:24;;;;;;;20.63;14.10;;;;;;;8.85;98.65;99656.88;5078703;28;20431;-62
2021/11/19 02:02:52;;;;;;;21.55;13.80;;;;;;;8.88;98.43;99659.25;5074965;28;20028;-61
2021/11/19 02:05:42;;;;;;;17.20;12.73;;;;;;;8.95;97.74;99651.88;5067332;28;20025;-60
2021/11/19 02:08:16;;;;;;;18.77;12.43;;;;;;;8.92;97.13;99649.50;5064480;28;20078;-64
2021/11/19 02:10:45;;;;;;;18.40;12.43;;;;;;;8.98;97.13;99651.63;5071817;28;20608;-60
2021/11/19 02:13:32;;;;;;;19.35;13.20;;;;;;;9.05;97.38;99642.47;5074366;28;20032;-61
2021/11/19 02:16:03;;;;;;;19.67;12.95;;;;;;;9.09;97.29;99643.94;5072976;28;20055;-62
2021/11/19 02:18:30;;;;;;;20.65;12.90;;;;;;;8.82;96.30;99616.44;5071599;28;20040;-62
2021/11/19 02:21:11;;;;;;;21.05;13.32;;;;;;;8.97;96.41;99647.41;5076586;28;20039;-60
2021/11/19 02:23:44;;;;;;;18.08;12.00;;;;;;;8.86;96.75;99655.94;5107351;27;20036;-61
2021/11/19 02:26:17;;;;;;;19.77;12.90;;;;;;;8.89;96.51;99639.31;5078494;28;20055;-63
2021/11/19 02:28:44;;;;;;;20.17;12.57;;;;;;;8.99;96.64;99650.72;5072440;28;20041;-59
2021/11/19 02:31:12;;;;;;;20.00;12.85;;;;;;;9.04;96.28;99656.41;5092556;28;20029;-62
2021/11/19 02:33:39;;;;;;;19.67;12.73;;;;;;;9.01;95.79;99644.47;5065910;28;20433;-61
2021/11/19 02:36:08;;;;;;;17.90;12.43;;;;;;;8.84;95.81;99626.69;5068908;28;20028;-60
2021/11/19 02:38:57;;;;;;;17.58;12.18;;;;;;;9.05;96.48;99650.25;5052731;28;20032;-62
2021/11/19 02:41:25;;;;;;;19.38;12.88;;;;;;;9.02;95.84;99650.50;5059101;28;20046;-63
2021/11/19 02:44:04;;;;;;;19.52;11.77;;;;;;;9.09;95.39;99651.72;5073021;28;20100;-60
2021/11/19 02:46:39;;;;;;;18.88;12.20;;;;;;;8.92;95.91;99637.34;5075222;28;20024;-63
2021/11/19 02:49:05;;;;;;;20.08;13.05;;;;;;;9.01;95.55;99649.66;5101254;27;20099;-60
2021/11/19 02:51:34;;;;;;;19.05;13.02;;;;;;;9.06;95.49;99651.94;5067099;28;20062;-63
2021/11/19 02:54:01;;;;;;;19.15;11.88;;;;;;;9.08;95.68;99646.63;5075824;28;20027;-62
2021/11/19 02:56:27;;;;;;;17.75;11.60;;;;;;;8.99;95.30;99650.72;5071008;28;20027;-63
2021/11/19 02:58:57;;;;;;;16.67;11.80;;;;;;;8.74;95.78;99638.63;5075859;28;20210;-62
2021/11/19 03:01:27;;;;;;;17.30;12.30;;;;;;;8.78;96.16;99643.50;5057948;28;20055;-62
2021/11/19 03:04:03;;;;;;;20.00;12.05;;;;;;;8.74;96.29;99642.06;5075563;28;20084;-62
2021/11/19 03:06:33;;;;;;;17.70;12.52;;;;;;;8.65;96.13;99651.31;5047845;28;20044;-64
2021/11/19 03:08:59;;;;;;;18.20;12.98;;;;;;;8.69;96.03;99651.94;5102992;27;20039;-60
2021/11/19 03:11:25;;;;;;;18.73;12.73;;;;;;;8.68;96.18;99650.28;5072149;28;20067;-62
2021/11/19 03:13:51;;;;;;;20.15;13.65;;;;;;;8.38;96.48;99615.16;5078600;28;20030;-61
2021/11/19 03:16:16;;;;;;;18.60;12.30;;;;;;;8.60;96.64;99660.38;5073911;28;20388;-62
2021/11/19 03:18:42;;;;;;;18.38;13.18;;;;;;;8.18;96.66;99607.94;5070335;28;20028;-61
2021/11/19 03:21:11;;;;;;;20.35;12.25;;;;;;;8.62;96.83;99664.50;5067735;28;20127;-61
2021/11/19 03:23:37;;;;;;;19.98;13.10;;;;;;;8.31;96.47;99623.47;5071213;28;20496;-64
2021/11/19 03:26:03;;;;;;;21.95;13.18;;;;;;;8.55;96.94;99655.47;5069566;28;20035;-61
2021/11/19 03:28:29;;;;;;;20.02;13.57;;;;;;;8.59;97.05;99662.09;5068459;28;20036;-60
2021/11/19 03:30:57;;;;;;;18.02;12.07;;;;;;;8.70;96.64;99657.94;5069087;28;20036;-61
2021/11/19 03:33:25;;;;;;;19.05;12.73;;;;;;;8.70;96.27;99653.59;5073683;28;20376;-61
2021/11/19 03:35:51;;;;;;;19.45;13.20;;;;;;;8.56;96.30;99664.94;5073290;28;20576;-62
2021/11/19 03:38:17;;;;;;;19.67;12.32;;;;;;;8.34;95.89;99620.63;5070197;28;20149;-61
2021/11/19 03:40:45;;;;;;;19.98;12.40;;;;;;;8.59;96.29;99666.47;5069066;28;20115;-60
2021/11/19 03:43:15;;;;;;;18.25;12.35;;;;;;;8.65;96.26;99668.63;5073490;28;20020;-62
2021/11/19 03:45:51;;;;;;;20.35;13.07;;;;;;;8.64;95.62;99657.44;5071904;28;20118;-62
2021/11/19 03:48:18;;;;;;;18.38;12.32;;;;;;;8.66;96.28;99662.53;5057987;28;20031;-62
2021/11/19 03:50:50;;;;;;;18.02;12.32;;;;;;;8.47;94.88;99611.13;5068092;28;20046;-62
2021/11/19 03:53:17;;;;;;;18.60;12.07;;;;;;;8.49;95.03;99611.00;5067480;28;20096;-62
2021/11/19 03:55:46;;;;;;;19.90;12.73;;;;;;;8.76;95.22;99665.28;5052635;28;20399;-61
2021/11/19 03:58:13;;;;;;;17.48;12.30;;;;;;;8.76;95.38;99665.28;5064769;28;20496;-62
2021/11/19 04:00:42;;;;;;;17.55;12.68;;;;;;;8.69;95.10;99677.03;5071169;28;20083;-62
2021/11/19 04:03:09;;;;;;;17.55;12.50;;;;;;;8.45;95.36;99631.13;5071098;28;20119;-60
2021/11/19 04:05:35;;;;;;;18.85;11.63;;;;;;;8.52;95.34;99636.72;5076408;28;20531;-59
2021/11/19 04:08:00;;;;;;;17.40;12.32;;;;;;;8.78;95.43;99674.63;5057585;28;20038;-61
2021/11/19 04:10:27;;;;;;;17.73;12.60;;;;;;;8.45;94.89;99613.81;5062003;28;20375;-62
2021/11/19 04:12:53;;;;;;;16.88;11.75;;;;;;;8.78;95.12;99682.41;5058637;28;20797;-63
2021/11/19 04:15:31;;;;;;;17.05;12.05;;;;;;;8.85;94.88;99665.50;5066310;28;20039;-59
2021/11/19 04:17:57;;;;;;;17.13;11.80;;;;;;;8.92;95.06;99673.66;5075522;28;20025;-61
2021/11/19 04:20:23;;;;;;;17.65;11.82;;;;;;;8.72;94.67;99633.56;5075109;28;20300;-61
2021/11/19 04:22:50;;;;;;;20.02;12.77;;;;;;;9.01;94.37;99679.97;5076366;28;20382;-63
2021/11/19 04:25:18;;;;;;;18.50;12.70;;;;;;;8.72;93.28;99653.47;5071961;28;20032;-61
2021/11/19 04:27:44;;;;;;;19.88;12.25;;;;;;;8.82;93.90;99677.84;5070765;28;20125;-61
2021/11/19 04:30:13;;;;;;;18.63;13.00;;;;;;;8.85;93.77;99675.00;5067844;28;20040;-60
2021/11/19 04:32:39;;;;;;;18.45;12.75;;;;;;;8.91;93.75;99672.00;5071453;28;20115;-62
2021/11/19 04:35:05;;;;;;;18.17;12.95;;;;;;;8.91;94.11;99677.19;5075354;28;20035;-61
2021/11/19 04:37:31;;;;;;;18.77;12.32;;;;;;;8.68;94.22;99628.72;5069022;28;20039;-60
2021/11/19 04:39:56;;;;;;;18.50;12.93;;;;;;;8.62;94.14;99630.78;5078109;28;20037;-61
2021/11/19 04:42:22;;;;;;;17.48;12.13;;;;;;;8.90;93.65;99672.94;5071223;28;20035;-61
2021/11/19 04:44:47;;;;;;;18.52;12.90;;;;;;;8.79;93.13;99686.66;5069204;28;20033;-61
2021/11/19 04:47:13;;;;;;;19.20;12.95;;;;;;;8.58;94.31;99683.78;5070675;28;20032;-61
2021/11/19 04:49:39;;;;;;;19.15;12.65;;;;;;;8.59;94.78;99690.63;5075435;28;20031;-61
2021/11/19 04:52:07;;;;;;;19.90;13.73;;;;;;;8.48;94.90;99697.50;5070198;28;20013;-61
2021/11/19 04:54:33;;;;;;;18.83;12.18;;;;;;;8.57;94.94;99689.09;5054870;28;20485;-61
2021/11/19 04:56:58;;;;;;;20.27;13.18;;;;;;;8.46;95.26;99690.63;5073981;28;20033;-61
2021/11/19 04:59:24;;;;;;;18.15;12.70;;;;;;;8.55;95.34;99699.56;5096893;28;20043;-61
2021/11/19 05:01:54;;;;;;;19.38;13.15;;;;;;;8.51;95.15;99698.13;5074472;28;20597;-61
2021/11/19 05:04:20;;;;;;;20.65;13.32;;;;;;;8.44;95.37;99686.50;5075104;28;20566;-61
2021/11/19 05:06:46;;;;;;;21.00;13.60;;;;;;;8.59;95.38;99697.59;5074780;28;20044;-61
2021/11/19 05:09:12;;;;;;;20.58;12.48;;;;;;;8.63;95.13;99699.03;5070989;28;20541;-65
2021/11/19 05:11:54;;;;;;;20.58;13.88;;;;;;;8.59;94.85;99701.00;5075150;28;20031;-62
2021/11/19 05:14:20;;;;;;;21.98;13.15;;;;;;;8.56;94.99;99696.03;5073603;28;20032;-61
2021/11/19 05:16:46;;;;;;;18.98;13.20;;;;;;;8.54;94.67;99699.66;5073358;28;20474;-61
2021/11/19 05:19:12;;;;;;;19.25;12.20;;;;;;;8.58;95.17;99704.53;5108335;27;20103;-61
2021/11/19 05:21:38;;;;;;;18.40;12.10;;;;;;;8.39;93.94;99666.03;5084543;28;20036;-61
2021/11/19 05:24:06;;;;;;;19.83;12.30;;;;;;;8.35;94.46;99651.63;5078383;28;20372;-61
2021/11/19 05:26:32;;;;;;;18.10;12.35;;;;;;;8.69;94.13;99701.22;5074619;28;20054;-61
2021/11/19 05:28:58;;;;;;;19.00;11.55;;;;;;;8.74;93.86;99700.88;5079944;28;20054;-61
2021/11/19 05:31:24;;;;;;;19.08;12.30;;;;;;;8.80;93.95;99698.69;5069271;28;20028;-61
2021/11/19 05:33:50;;;;;;;16.58;11.55;;;;;;;8.53;92.78;99659.13;5076577;28;20027;-61
2021/11/19 05:36:16;;;;;;;17.67;11.48;;;;;;;8.78;93.13;99697.97;5074938;28;20027;-61
2021/11/19 05:38:42;;;;;;;17.00;11.32;;;;;;;8.81;92.96;99689.13;5068738;28;20028;-61
2021/11/19 05:41:10;;;;;;;17.52;11.80;;;;;;;8.88;92.42;99700.75;5099160;27;20028;-61
2021/11/19 05:43:37;;;;;;;18.02;11.52;;;;;;;8.79;92.84;99698.78;5066300;28;20078;-61
2021/11/19 05:46:04;;;;;;;17.88;11.90;;;;;;;8.72;93.63;99700.97;5064869;28;20031;-61
2021/11/19 05:48:29;;;;;;;16.15;10.57;;;;;;;8.70;93.26;99702.84;5100028;27;20039;-61
2021/11/19 05:50:55;;;;;;;17.95;11.43;;;;;;;8.79;92.40;99693.59;5073974;28;20040;-61
2021/11/19 05:53:20;;;;;;;17.33;11.07;;;;;;;8.61;93.44;99701.72;5068407;28;20481;-61
2021/11/19 05:55:47;;;;;;;17.90;11.30;;;;;;;8.39;93.74;99673.00;5050035;28;20569;-61
2021/11/19 05:58:14;;;;;;;17.92;11.15;;;;;;;8.61;93.87;99706.91;5070856;28;20028;-61
2021/11/19 06:00:55;;;;;;;16.80;11.02;;;;;;;8.60;93.31;99710.44;5064777;28;20025;-61
2021/11/19 06:03:21;;;;;;;17.02;10.98;;;;;;;8.51;93.84;99707.66;5071356;28;20135;-61
2021/11/19 06:05:47;;;;;;;16.73;10.60;;;;;;;8.51;94.41;99718.84;5066088;28;20024;-61
2021/11/19 06:08:13;;;;;;;17.10;10.98;;;;;;;8.51;94.59;99720.63;5095281;27;20032;-61
2021/11/19 06:10:50;;;;;;;17.40;10.68;;;;;;;8.57;94.13;99722.78;5061601;28;20029;-61
2021/11/19 06:13:18;;;;;;;19.15;11.32;;;;;;;8.24;94.52;99672.28;5070792;28;20672;-61
2021/11/19 06:15:49;;;;;;;16.98;10.63;;;;;;;8.55;94.19;99732.44;5064600;28;20028;-61
2021/11/19 06:18:20;;;;;;;16.35;10.27;;;;;;;8.48;93.95;99724.22;5075313;28;20369;-61
2021/11/19 06:20:50;;;;;;;18.48;10.82;;;;;;;8.58;94.22;99725.28;5065422;28;20116;-61
2021/11/19 06:23:21;;;;;;;17.52;10.60;;;;;;;8.53;93.54;99726.53;5065924;28;20099;-61
2021/11/19 06:25:47;;;;;;;17.88;10.68;;;;;;;8.54;94.11;99744.56;5067498;28;20032;-61
2021/11/19 06:28:21;;;;;;;17.35;11.45;;;;;;;8.46;93.41;99733.88;5059808;28;20136;-61
2021/11/19 06:30:48;;;;;;;17.42;11.90;;;;;;;8.51;93.61;99744.78;5050936;28;20634;-61
2021/11/19 06:33:14;;;;;;;18.70;11.48;;;;;;;8.25;93.32;99702.41;5063945;28;20484;-62
2021/11/19 06:35:40;;;;;;;16.35;10.55;;;;;;;8.25;93.02;99705.84;5060572;28;20039;-61
2021/11/19 06:38:05;;;;;;;16.63;10.82;;;;;;;8.54;92.93;99756.69;5103671;27;20028;-61
2021/11/19 06:40:33;;;;;;;17.80;11.73;;;;;;;8.60;92.46;99759.69;5066344;28;20648;-63
2021/11/19 06:43:00;;;;;;;19.27;11.35;;;;;;;8.52;93.31;99759.38;5073116;28;20127;-62
2021/11/19 06:45:26;;;;;;;17.75;11.02;;;;;;;8.48;93.23;99760.53;5057159;28;20020;-62
2021/11/19 06:47:52;;;;;;;18.35;11.77;;;;;;;8.24;93.30;99717.16;5072400;28;20071;-62
2021/11/19 06:50:21;;;;;;;17.25;11.30;;;;;;;8.60;92.29;99764.88;5072321;28;20024;-62
2021/11/19 06:52:47;;;;;;;17.52;11.02;;;;;;;8.41;92.71;99730.72;5070589;28;20467;-62
2021/11/19 06:55:13;;;;;;;15.73;10.65;;;;;;;8.30;92.66;99715.91;5074792;28;20042;-62
2021/11/19 06:57:40;;;;;;;17.65;11.23;;;;;;;8.55;93.26;99779.91;5073706;28;20064;-62
2021/11/19 07:00:09;;;;;;;17.52;11.50;;;;;;;8.27;93.22;99723.91;5080420;28;20020;-62
2021/11/19 07:02:35;;;;;;;16.98;10.93;;;;;;;8.35;93.51;99728.56;5068593;28;20119;-62
2021/11/19 07:05:00;;;;;;;18.20;12.30;;;;;;;8.60;92.93;99770.06;5075889;28;20131;-62
2021/11/19 07:07:25;;;;;;;18.13;12.00;;;;;;;8.32;93.58;99737.34;5080086;28;20039;-62
2021/11/19 07:09:51;;;;;;;19.45;11.77;;;;;;;8.33;93.63;99740.78;5073230;28;20024;-62
2021/11/19 07:12:16;;;;;;;20.20;12.30;;;;;;;8.54;93.62;99782.59;5059479;28;20028;-62
2021/11/19 07:14:42;;;;;;;16.08;10.95;;;;;;;8.53;94.13;99778.38;5060367;28;20035;-62
2021/11/19 07:17:08;;;;;;;17.02;11.73;;;;;;;8.58;93.46;99787.50;5059615;28;20023;-62
2021/11/19 07:19:35;;;;;;;21.08;12.73;;;;;;;8.70;92.64;99795.38;5104273;27;20054;-62
2021/11/19 07:22:01;;;;;;;18.83;11.70;;;;;;;8.59;93.87;99798.69;5075771;28;20077;-62
2021/11/19 07:24:27;;;;;;;19.08;11.55;;;;;;;8.74;93.97;99802.00;5072494;28;20047;-62
2021/11/19 07:26:53;;;;;;;17.95;11.23;;;;;;;8.64;94.37;99814.78;5071073;28;20555;-62
2021/11/19 07:29:19;;;;;;;18.90;11.30;;;;;;;8.71;94.07;99807.44;5065254;28;20367;-62
2021/11/19 07:31:45;;;;;;;18.52;11.18;;;;;;;8.61;94.07;99808.00;5068521;28;20103;-62
2021/11/19 07:34:10;;;;;;;19.27;11.23;;;;;;;8.62;94.42;99814.03;5067606;28;20266;-62
2021/11/19 07:36:36;;;;;;;16.42;10.80;;;;;;;8.47;93.95;99777.03;5057761;28;20049;-62
2021/11/19 07:39:04;;;;;;;19.73;11.55;;;;;;;8.67;94.59;99822.34;5071393;28;20027;-62
2021/11/19 07:41:29;;;;;;;18.13;11.57;;;;;;;8.65;94.39;99825.03;5081411;28;20028;-62
2021/11/19 07:43:55;;;;;;;16.80;11.00;;;;;;;8.51;93.72;99826.91;5069860;28;20494;-62
2021/11/19 07:46:24;;;;;;;18.90;11.35;;;;;;;8.53;94.19;99830.22;5071595;28;20078;-62
2021/11/19 07:48:49;;;;;;;18.30;10.83;;;;;;;8.56;93.89;99825.66;5094922;27;20036;-62
2021/11/19 07:51:20;;;;;;;17.70;10.98;;;;;;;8.61;93.65;99843.50;5080550;28;20433;-62
2021/11/19 07:53:46;;;;;;;17.92;11.40;;;;;;;8.37;93.46;99802.69;5051765;28;20406;-62
2021/11/19 07:56:14;;;;;;;19.48;11.35;;;;;;;8.37;94.29;99807.84;5072053;28;20477;-62
2021/11/19 07:58:39;;;;;;;17.30;10.98;;;;;;;8.66;92.68;99844.84;5069417;28;20086;-62
2021/11/19 08:01:06;;;;;;;17.05;10.82;;;;;;;8.70;93.24;99836.88;5076477;28;20032;-62
2021/11/19 08:03:31;;;;;;;21.27;12.23;;;;;;;8.49;92.22;99800.22;5075582;28;20111;-61
2021/11/19 08:05:58;;;;;;;19.00;11.50;;;;;;;8.51;92.20;99799.22;5101990;27;21010;-62
2021/11/19 08:08:24;;;;;;;18.45;11.63;;;;;;;8.64;92.28;99825.97;5072747;28;20519;-61
2021/11/19 08:10:50;;;;;;;17.50;10.80;;;;;;;8.81;92.59;99845.56;5078474;28;20062;-62
2021/11/19 08:13:17;;;;;;;20.75;11.68;;;;;;;8.77;91.80;99845.91;5073434;28;20467;-62
2021/11/19 08:15:42;;;;;;;18.35;11.85;;;;;;;8.82;90.55;99843.81;5070209;28;20468;-62
2021/11/19 08:18:19;;;;;;;23.15;12.15;;;;;;;8.58;91.61;99818.59;5076726;28;20135;-61
2021/11/19 08:20:47;;;;;;;18.38;11.77;;;;;;;8.85;91.30;99859.16;5072232;28;20052;-62
2021/11/19 08:23:17;;;;;;;19.60;11.77;;;;;;;8.79;91.61;99844.03;5053395;28;20727;-61
2021/11/19 08:25:43;;;;;;;21.73;12.15;;;;;;;8.87;91.84;99853.88;5075588;28;20035;-62
2021/11/19 08:28:09;;;;;;;17.45;11.57;;;;;;;8.92;90.57;99849.22;5077657;28;20105;-62
2021/11/19 08:30:44;;;;;;;20.65;12.00;;;;;;;8.82;91.67;99854.19;5071797;28;20029;-61
2021/11/19 08:33:11;;;;;;;21.52;12.18;;;;;;;8.89;91.37;99854.59;5069911;28;20119;-61
2021/11/19 08:35:40;;;;;;;18.08;11.93;;;;;;;8.92;90.82;99854.41;5069259;28;20025;-61
2021/11/19 08:38:07;;;;;;;20.38;11.50;;;;;;;8.85;91.55;99856.56;5074214;28;20051;-61
2021/11/19 08:40:35;;;;;;;18.55;12.10;;;;;;;8.85;91.87;99844.44;5047963;28;20028;-61
2021/11/19 08:43:01;;;;;;;19.90;12.23;;;;;;;8.95;91.24;99849.84;5077983;28;20063;-62
2021/11/19 08:45:26;;;;;;;21.30;12.10;;;;;;;8.60;90.14;99801.19;5075536;28;20055;-61
2021/11/19 08:47:55;;;;;;;20.50;13.00;;;;;;;8.92;90.70;99854.41;5076498;28;20458;-62
2021/11/19 08:50:25;;;;;;;20.42;11.90;;;;;;;8.89;91.19;99855.44;5068096;28;20093;-62
2021/11/19 08:52:50;;;;;;;20.38;12.00;;;;;;;8.70;91.00;99816.13;5072562;28;20870;-61
2021/11/19 08:55:16;;;;;;;18.70;11.85;;;;;;;8.95;90.95;99843.81;5072339;28;20024;-62
2021/11/19 08:57:42;;;;;;;23.33;13.50;;;;;;;9.00;90.49;99855.56;5053665;28;20386;-61
2021/11/19 09:00:12;;;;;;;19.38;11.65;;;;;;;8.85;90.11;99820.25;5073293;28;20021;-62
2021/11/19 09:02:38;;;;;;;18.23;11.65;;;;;;;8.97;89.22;99840.19;5077799;28;20073;-62
2021/11/19 09:05:06;;;;;;;16.73;11.45;;;;;;;9.06;89.05;99858.66;5076076;28;20028;-61
2021/11/19 09:07:33;;;;;;;19.95;12.10;;;;;;;8.80;89.80;99819.75;5070341;28;20032;-62
2021/11/19 09:09:59;;;;;;;19.05;12.02;;;;;;;8.88;89.54;99816.66;5059691;28;20027;-62
2021/11/19 09:12:25;;;;;;;20.98;12.57;;;;;;;8.74;89.00;99804.59;5112045;27;20700;-61
2021/11/19 09:14:50;;;;;;;21.15;12.07;;;;;;;9.06;89.36;99856.06;5069439;28;20024;-61
2021/11/19 09:17:22;;;;;;;20.13;13.38;;;;;;;9.07;90.07;99862.91;5074517;28;20020;-62
2021/11/19 09:19:58;;;;;;;19.35;11.85;;;;;;;8.81;89.31;99824.00;5080967;28;20343;-62
2021/11/19 09:22:50;;;;;;;21.38;12.60;;;;;;;9.12;89.24;99868.63;5080632;28;20047;-61
2021/11/19 09:25:18;;;;;;;20.30;12.10;;;;;;;8.98;89.00;99864.34;5076397;28;20035;-62
2021/11/19 09:27:44;;;;;;;20.40;12.55;;;;;;;8.93;89.67;99856.91;5071358;28;20028;-62
2021/11/19 09:30:17;;;;;;;20.60;12.95;;;;;;;9.12;89.32;99863.44;5074153;28;20035;-61
2021/11/19 09:32:51;;;;;;;20.92;12.98;;;;;;;9.21;89.48;99865.41;5073326;28;20028;-61
2021/11/19 09:35:19;;;;;;;22.10;13.65;;;;;;;8.87;89.07;99813.22;5074214;28;20678;-61
2021/11/19 09:37:48;;;;;;;21.60;12.43;;;;;;;9.18;89.13;99861.25;5082751;28;20098;-61
2021/11/19 09:40:14;;;;;;;21.10;13.75;;;;;;;9.12;90.65;99853.06;5078676;28;20062;-61
2021/11/19 09:42:55;;;;;;;19.90;11.63;;;;;;;8.85;89.19;99808.13;5071071;28;20450;-61
2021/11/19 09:45:36;;;;;;;19.88;11.93;;;;;;;9.14;89.40;99844.22;5070169;28;20126;-61
2021/11/19 09:48:23;;;;;;;19.77;12.82;;;;;;;9.27;89.85;99848.56;5063127;28;20058;-61
2021/11/19 09:51:13;;;;;;;18.90;12.13;;;;;;;9.26;89.21;99849.53;5075322;28;20043;-62
2021/11/19 09:54:13;;;;;;;22.17;12.40;;;;;;;9.28;89.26;99858.03;5068594;28;20505;-62
2021/11/19 09:56:57;;;;;;;21.05;11.10;;;;;;;9.42;89.44;99850.13;5064201;28;20122;-61
2021/11/19 09:59:45;;;;;;;17.85;10.95;;;;;;;9.43;87.64;99849.97;5078719;28;20020;-61
2021/11/19 10:02:32;;;;;;;19.55;11.60;;;;;;;9.41;87.71;99846.66;5066764;28;20071;-61
2021/11/19 10:05:07;;;;;;;19.55;11.20;;;;;;;9.35;88.26;99844.50;5076715;28;20087;-61
2021/11/19 10:07:57;;;;;;;18.98;12.18;;;;;;;9.50;88.54;99842.59;5073972;28;20517;-61
2021/11/19 10:10:47;;;;;;;19.38;11.88;;;;;;;9.36;87.15;99843.59;5076222;28;20861;-61
2021/11/19 10:13:21;;;;;;;21.02;12.30;;;;;;;9.40;88.15;99844.16;5066071;28;20554;-61
2021/11/19 10:15:59;;;;;;;19.52;11.25;;;;;;;9.20;88.34;99801.47;5075158;28;20620;-62
2021/11/19 10:18:42;;;;;;;20.02;11.50;;;;;;;9.53;87.75;99846.78;5076714;28;20482;-62
2021/11/19 10:21:26;;;;;;;19.58;10.88;;;;;;;9.45;87.56;99842.09;5073690;28;20551;-61
2021/11/19 10:23:56;;;;;;;20.45;12.38;;;;;;;9.43;88.32;99831.81;5072332;28;20027;-62
2021/11/19 10:26:34;;;;;;;21.17;12.25;;;;;;;9.51;88.26;99822.66;5075001;28;20035;-62
2021/11/19 10:29:09;;;;;;;21.80;12.68;;;;;;;9.22;87.33;99781.44;5080368;28;20032;-61
2021/11/19 10:31:35;;;;;;;20.45;12.50;;;;;;;9.49;87.37;99827.97;5066706;28;20028;-61
2021/11/19 10:34:19;;;;;;;20.85;12.35;;;;;;;9.50;87.62;99821.84;5076228;28;20058;-61
2021/11/19 10:37:07;;;;;;;20.75;12.75;;;;;;;9.50;87.90;99815.81;5078575;28;20043;-61
2021/11/19 10:39:35;;;;;;;22.48;12.88;;;;;;;9.40;87.49;99816.47;5041097;28;20051;-61
2021/11/19 10:42:23;;;;;;;21.52;13.13;;;;;;;9.42;87.92;99800.78;5066613;28;20016;-61
2021/11/19 10:45:00;;;;;;;20.83;13.30;;;;;;;9.28;88.20;99764.59;5067777;28;20123;-61
2021/11/19 10:47:47;;;;;;;19.48;12.20;;;;;;;9.42;87.32;99761.84;5078255;28;20073;-61
2021/11/19 10:50:50;;;;;;;18.27;11.43;;;;;;;9.71;87.88;99800.47;5073500;28;20016;-61
2021/11/19 10:53:37;;;;;;;19.83;12.30;;;;;;;9.60;86.71;99798.63;5067249;28;20067;-61
2021/11/19 10:56:35;;;;;;;22.63;13.05;;;;;;;9.76;86.66;99791.41;5075952;28;20025;-62
2021/11/19 10:59:19;;;;;;;19.73;12.23;;;;;;;9.68;87.13;99787.72;5065553;28;20115;-61
2021/11/19 11:02:01;;;;;;;18.88;11.73;;;;;;;9.66;86.40;99784.41;5068210;28;20023;-62
2021/11/19 11:04:53;;;;;;;19.27;11.88;;;;;;;9.78;87.22;99779.16;5071741;28;20486;-61
2021/11/19 11:07:37;;;;;;;20.00;11.63;;;;;;;9.87;86.73;99762.06;5065835;28;20016;-62
2021/11/19 11:10:11;;;;;;;19.70;12.13;;;;;;;9.92;87.33;99769.53;4995972;28;20027;-62
2021/11/19 11:12:45;;;;;;;18.90;11.55;;;;;;;9.91;86.84;99770.44;5059640;28;20074;-62
2021/11/19 11:15:23;;;;;;;19.20;11.80;;;;;;;9.96;86.56;99765.75;5064131;28;20043;-61
2021/11/19 11:18:03;;;;;;;20.75;12.05;;;;;;;9.92;85.93;99769.53;5063348;28;20070;-62
2021/11/19 11:20:29;;;;;;;21.38;12.13;;;;;;;9.79;87.49;99762.63;5072627;28;20024;-62
2021/11/19 11:22:57;;;;;;;24.15;13.70;;;;;;;9.87;86.47;99753.44;5069838;28;20082;-62
2021/11/19 11:25:29;;;;;;;20.85;12.38;;;;;;;9.85;87.47;99743.16;5048789;28;20028;-62
2021/11/19 11:28:03;;;;;;;21.50;12.80;;;;;;;9.69;87.62;99709.69;5070750;28;20508;-61
2021/11/19 11:30:50;;;;;;;20.30;13.00;;;;;;;9.92;86.48;99746.97;5064691;28;20039;-62
2021/11/19 11:33:23;;;;;;;20.02;12.45;;;;;;;9.93;87.43;99743.44;5073853;28;20027;-62
2021/11/19 11:35:48;;;;;;;19.40;12.57;;;;;;;9.97;86.91;99737.06;5069232;28;20224;-62
2021/11/19 11:38:30;;;;;;;20.60;12.27;;;;;;;9.94;86.27;99737.28;5064656;28;20024;-62
2021/11/19 11:41:34;;;;;;;19.55;12.18;;;;;;;9.94;85.79;99732.09;5109032;27;20662;-61